Emmen Airport LSME

Flugplatz Daten

Name: Emmen Airport

Ident: LSME

Lat: 47,0923996

Long: 8,305120468

Platzhöhe: 1400 ft

IataCode:

City:

Metar

2021/10/25 20:20
LSME 252020Z AUTO 00000KT 8000NDV FEW240 06/06 Q1022 RMK

Taf

2021/10/25 17:00
TAF LSME 251625Z 2517/2623 10002KT 9999 FEW120
BECMG 2519/2521 4500 MIFG NSC PROB40
TEMPO 2521/2602 2500 BCFG
BECMG 2523/2602 BKN030 PROB30
TEMPO 2604/2610 SHRA
BECMG 2606/2609 9999
Gewünschte Webcam nicht vorhanden? Dann fügen Sie eine hinzu. Sie wird dann so schnell wie möglich freigeschaltet
Url: Title: